createdAt,value
2019-03-18T00:02:00.668Z,8.40
2019-03-18T00:04:29.001Z,8.53
2019-03-18T00:06:57.209Z,8.37
2019-03-18T00:09:25.684Z,7.43
2019-03-18T00:11:53.890Z,8.90
2019-03-18T00:14:22.069Z,6.00
2019-03-18T00:16:50.246Z,5.93
2019-03-18T00:19:18.638Z,6.43
2019-03-18T00:21:46.866Z,6.67
2019-03-18T00:24:15.231Z,6.00
2019-03-18T00:26:43.383Z,5.93
2019-03-18T00:29:11.533Z,6.70
2019-03-18T00:31:39.957Z,8.57
2019-03-18T00:34:08.174Z,9.83
2019-03-18T00:36:36.774Z,8.20
2019-03-18T00:39:06.681Z,7.40
2019-03-18T00:41:35.198Z,7.97
2019-03-18T00:44:03.381Z,6.30
2019-03-18T00:46:31.599Z,7.60
2019-03-18T00:48:59.944Z,7.40
2019-03-18T00:51:28.168Z,8.23
2019-03-18T00:53:56.449Z,8.07
2019-03-18T00:56:24.638Z,8.13
2019-03-18T00:58:53.837Z,7.70
2019-03-18T01:01:22.048Z,10.23
2019-03-18T01:03:50.428Z,9.17
2019-03-18T01:06:18.638Z,7.70
2019-03-18T01:08:46.991Z,7.23
2019-03-18T01:11:15.139Z,6.47
2019-03-18T01:13:43.337Z,5.73
2019-03-18T01:16:11.527Z,3.90
2019-03-18T01:18:39.840Z,3.30
2019-03-18T01:21:08.039Z,3.70
2019-03-18T01:23:36.531Z,2.93
2019-03-18T01:26:04.658Z,3.53
2019-03-18T01:28:32.864Z,2.37
2019-03-18T01:31:01.089Z,4.80
2019-03-18T01:33:29.433Z,2.13
2019-03-18T01:35:57.939Z,2.30
2019-03-18T01:38:26.123Z,2.97
2019-03-18T01:40:54.443Z,2.07
2019-03-18T01:43:22.865Z,3.20
2019-03-18T01:45:51.086Z,2.50
2019-03-18T01:48:19.827Z,4.17
2019-03-18T01:50:48.504Z,2.40
2019-03-18T01:53:16.691Z,2.20
2019-03-18T01:55:44.893Z,2.50
2019-03-18T01:58:13.015Z,3.10
2019-03-18T02:00:42.364Z,2.20
2019-03-18T02:03:10.638Z,4.10
2019-03-18T02:05:39.008Z,2.10
2019-03-18T02:08:07.715Z,1.50
2019-03-18T02:10:35.903Z,2.13
2019-03-18T02:13:04.386Z,3.37
2019-03-18T02:15:32.593Z,3.20
2019-03-18T02:18:00.765Z,3.17
2019-03-18T02:20:29.423Z,1.70
2019-03-18T02:22:57.797Z,1.90
2019-03-18T02:25:25.966Z,1.10
2019-03-18T02:27:54.304Z,2.20
2019-03-18T02:30:22.616Z,1.10
2019-03-18T02:32:51.009Z,1.60
2019-03-18T02:35:19.626Z,1.90
2019-03-18T02:37:48.293Z,5.77
2019-03-18T02:40:16.467Z,5.20
2019-03-18T02:42:44.671Z,3.47
2019-03-18T02:45:12.929Z,1.87
2019-03-18T02:47:41.416Z,1.60
2019-03-18T02:50:09.757Z,1.10
2019-03-18T02:52:37.949Z,1.53
2019-03-18T02:55:06.670Z,1.47
2019-03-18T02:57:35.154Z,1.17
2019-03-18T03:00:04.994Z,1.30
2019-03-18T03:02:33.300Z,1.20
2019-03-18T03:05:01.645Z,1.40
2019-03-18T03:07:30.210Z,1.70
2019-03-18T03:09:58.645Z,4.73
2019-03-18T03:12:26.950Z,2.13
2019-03-18T03:14:55.397Z,2.60
2019-03-18T03:17:23.871Z,2.20
2019-03-18T03:19:52.291Z,4.47
2019-03-18T03:22:20.513Z,3.10
2019-03-18T03:24:48.718Z,3.40
2019-03-18T03:27:16.938Z,4.00
2019-03-18T03:29:45.425Z,3.70
2019-03-18T03:32:13.602Z,4.30
2019-03-18T03:34:41.740Z,3.80
2019-03-18T03:37:10.183Z,2.67
2019-03-18T03:39:38.514Z,3.10
2019-03-18T03:42:06.705Z,3.00
2019-03-18T03:44:34.934Z,3.40
2019-03-18T03:47:03.069Z,1.93
2019-03-18T03:49:31.330Z,1.50
2019-03-18T03:51:59.688Z,2.30
2019-03-18T03:54:27.845Z,2.20
2019-03-18T03:56:56.150Z,3.30
2019-03-18T03:59:24.418Z,2.40
2019-03-18T04:01:52.735Z,2.90
2019-03-18T04:04:23.943Z,2.60
2019-03-18T04:06:52.142Z,2.83
2019-03-18T04:09:20.327Z,2.37
2019-03-18T04:11:48.459Z,2.80
2019-03-18T04:14:16.907Z,2.70
2019-03-18T04:16:55.819Z,3.20
2019-03-18T04:19:15.285Z,6.93
2019-03-18T04:21:43.512Z,3.13
2019-03-18T04:24:11.690Z,5.87
2019-03-18T04:26:40.105Z,4.53
2019-03-18T04:29:08.759Z,4.23
2019-03-18T04:31:37.258Z,3.40
2019-03-18T04:34:10.282Z,2.83
2019-03-18T04:36:38.776Z,3.73
2019-03-18T04:39:07.198Z,4.10
2019-03-18T04:41:35.841Z,3.70
2019-03-18T04:44:04.271Z,4.00
2019-03-18T04:46:32.508Z,7.63
2019-03-18T04:49:00.956Z,9.67
2019-03-18T04:51:29.562Z,8.57
2019-03-18T04:53:58.023Z,7.90
2019-03-18T04:56:26.189Z,7.50
2019-03-18T04:58:54.538Z,6.50
2019-03-18T05:01:23.344Z,5.43
2019-03-18T05:03:51.623Z,4.90
2019-03-18T05:06:21.379Z,4.73
2019-03-18T05:08:49.787Z,4.40
2019-03-18T05:11:17.976Z,3.40
2019-03-18T05:13:46.482Z,4.70
2019-03-18T05:16:14.870Z,5.93
2019-03-18T05:18:43.111Z,9.20
2019-03-18T05:21:11.438Z,8.80
2019-03-18T05:23:39.980Z,8.47
2019-03-18T05:26:08.325Z,9.57
2019-03-18T05:28:36.895Z,9.10
2019-03-18T05:31:05.281Z,6.23
2019-03-18T05:33:33.488Z,4.30
2019-03-18T05:36:01.998Z,4.90
2019-03-18T05:38:30.665Z,5.23
2019-03-18T05:40:58.865Z,5.40
2019-03-18T05:43:27.218Z,5.03
2019-03-18T05:45:55.619Z,4.87
2019-03-18T05:48:23.964Z,5.33
2019-03-18T05:50:52.218Z,7.07
2019-03-18T05:53:20.716Z,4.73
2019-03-18T05:55:49.347Z,6.37
2019-03-18T05:58:17.709Z,6.03
2019-03-18T06:00:46.018Z,6.30
2019-03-18T06:03:14.165Z,6.33
2019-03-18T06:05:42.835Z,7.27
2019-03-18T06:08:11.934Z,9.57
2019-03-18T06:10:40.339Z,11.47
2019-03-18T06:13:08.533Z,10.67
2019-03-18T06:15:36.819Z,9.50
2019-03-18T06:18:05.552Z,8.77
2019-03-18T06:20:33.728Z,7.57
2019-03-18T06:23:02.320Z,9.40
2019-03-18T06:25:30.590Z,8.90
2019-03-18T06:27:58.910Z,9.80
2019-03-18T06:30:27.133Z,11.67
2019-03-18T06:32:55.883Z,5.53
2019-03-18T06:35:24.291Z,8.23
2019-03-18T06:37:52.690Z,6.33
2019-03-18T06:40:21.194Z,13.20
2019-03-18T06:42:49.810Z,15.23
2019-03-18T06:45:17.952Z,11.10
2019-03-18T06:47:46.318Z,8.93
2019-03-18T06:50:14.600Z,6.73
2019-03-18T06:52:42.735Z,7.67
2019-03-18T06:55:10.991Z,7.37
2019-03-18T06:57:40.073Z,6.73
2019-03-18T07:00:10.384Z,6.40
2019-03-18T07:02:38.814Z,5.67
2019-03-18T07:05:07.467Z,3.73
2019-03-18T07:07:35.610Z,4.03
2019-03-18T07:10:06.268Z,3.57
2019-03-18T07:12:34.756Z,2.13
2019-03-18T07:15:02.932Z,2.13
2019-03-18T07:17:31.071Z,2.90
2019-03-18T07:19:59.670Z,6.47
2019-03-18T07:22:28.012Z,5.50
2019-03-18T07:24:56.419Z,6.83
2019-03-18T07:27:25.062Z,4.97
2019-03-18T07:29:53.180Z,3.30
2019-03-18T07:32:21.371Z,3.10
2019-03-18T07:34:49.863Z,1.97
2019-03-18T07:37:18.321Z,2.30
2019-03-18T07:39:46.552Z,2.10
2019-03-18T07:42:15.294Z,2.53
2019-03-18T07:44:43.548Z,1.77
2019-03-18T07:47:12.026Z,1.80
2019-03-18T07:49:40.436Z,2.57
2019-03-18T07:52:08.609Z,2.63
2019-03-18T07:54:36.903Z,6.67
2019-03-18T07:57:05.629Z,2.73
2019-03-18T07:59:33.767Z,9.80
2019-03-18T08:02:01.942Z,10.57
2019-03-18T08:04:37.316Z,11.17
2019-03-18T08:07:00.247Z,5.43
2019-03-18T08:09:28.855Z,4.70
2019-03-18T08:11:58.065Z,2.73
2019-03-18T08:14:26.468Z,2.37
2019-03-18T08:16:54.602Z,2.60
2019-03-18T08:19:23.141Z,2.70
2019-03-18T08:21:51.288Z,2.03
2019-03-18T08:24:19.469Z,2.10
2019-03-18T08:26:47.846Z,3.60
2019-03-18T08:29:16.414Z,3.23
2019-03-18T08:31:45.077Z,3.93
2019-03-18T08:34:13.433Z,3.57
2019-03-18T08:36:41.675Z,38.37
2019-03-18T08:39:12.100Z,2.70
2019-03-18T08:41:40.222Z,2.30
2019-03-18T08:44:08.382Z,1.77
2019-03-18T08:46:36.539Z,1.50
2019-03-18T08:49:04.715Z,2.40
2019-03-18T08:51:32.909Z,4.20
2019-03-18T08:54:01.539Z,3.27
2019-03-18T08:56:29.863Z,3.50
2019-03-18T08:58:58.355Z,2.57
2019-03-18T09:01:26.536Z,4.60
2019-03-18T09:03:55.167Z,1.67
2019-03-18T09:06:23.282Z,2.20
2019-03-18T09:08:51.664Z,1.73
2019-03-18T09:11:20.402Z,2.00
2019-03-18T09:13:49.926Z,1.90
2019-03-18T09:16:18.221Z,1.90
2019-03-18T09:18:46.469Z,3.10
2019-03-18T09:21:14.730Z,10.63
2019-03-18T09:23:43.256Z,4.13
2019-03-18T09:26:12.103Z,6.37
2019-03-18T09:28:40.231Z,5.63
2019-03-18T09:31:08.466Z,3.10
2019-03-18T09:33:36.787Z,2.50
2019-03-18T09:36:05.529Z,7.67
2019-03-18T09:38:34.346Z,3.87
2019-03-18T09:41:03.805Z,4.03
2019-03-18T09:43:32.586Z,3.70
2019-03-18T09:46:20.244Z,2.80
2019-03-18T09:48:48.384Z,2.83
2019-03-18T09:51:16.578Z,2.67
2019-03-18T09:53:44.913Z,2.87
2019-03-18T09:56:13.074Z,2.77
2019-03-18T09:58:41.236Z,2.83
2019-03-18T10:01:09.449Z,3.43
2019-03-18T10:03:37.629Z,2.43
2019-03-18T10:06:05.760Z,3.40
2019-03-18T10:08:34.169Z,7.33
2019-03-18T10:11:02.302Z,6.30
2019-03-18T10:13:30.708Z,3.40
2019-03-18T10:16:00.188Z,2.73
2019-03-18T10:18:28.627Z,3.13
2019-03-18T10:20:56.760Z,3.40
2019-03-18T10:23:24.988Z,12.67
2019-03-18T10:25:53.130Z,10.07
2019-03-18T10:28:21.493Z,22.40
2019-03-18T10:30:49.974Z,7.93
2019-03-18T10:33:18.110Z,7.37
2019-03-18T10:35:46.298Z,5.40
2019-03-18T10:38:14.519Z,10.60
2019-03-18T10:40:42.830Z,8.33
2019-03-18T10:43:11.284Z,5.03
2019-03-18T10:45:40.543Z,4.20
2019-03-18T10:48:09.038Z,3.17
2019-03-18T10:50:37.294Z,2.37
2019-03-18T10:53:05.997Z,3.37
2019-03-18T10:55:34.551Z,3.37
2019-03-18T10:58:02.948Z,4.93
2019-03-18T11:00:31.156Z,4.23
2019-03-18T11:02:59.490Z,4.60
2019-03-18T11:05:27.964Z,3.50
2019-03-18T11:07:56.142Z,3.70
2019-03-18T11:10:24.596Z,3.53
2019-03-18T11:12:52.742Z,12.83
2019-03-18T11:15:21.304Z,9.57
2019-03-18T11:17:50.573Z,7.53
2019-03-18T11:20:18.708Z,4.47
2019-03-18T11:22:47.019Z,3.00
2019-03-18T11:25:15.998Z,5.00
2019-03-18T11:27:44.406Z,5.47
2019-03-18T11:30:15.770Z,4.80
2019-03-18T11:32:43.923Z,4.50
2019-03-18T11:35:12.272Z,3.53
2019-03-18T11:37:40.526Z,4.13
2019-03-18T11:40:17.986Z,5.73
2019-03-18T11:42:46.351Z,5.80
2019-03-18T11:45:15.156Z,3.63
2019-03-18T11:47:43.412Z,5.27
2019-03-18T11:50:13.270Z,6.87
2019-03-18T11:52:41.392Z,4.30
2019-03-18T11:55:11.289Z,4.57
2019-03-18T11:57:39.470Z,8.87
2019-03-18T12:00:09.293Z,5.23
2019-03-18T12:02:37.426Z,5.03
2019-03-18T12:05:07.561Z,6.07
2019-03-18T12:07:36.073Z,5.90
2019-03-18T12:10:06.391Z,10.57
2019-03-18T12:12:35.278Z,4.93
2019-03-18T12:15:04.301Z,4.93
2019-03-18T12:17:32.557Z,5.93
2019-03-18T12:20:02.257Z,5.30
2019-03-18T12:22:30.781Z,5.70
2019-03-18T12:24:58.928Z,4.60
2019-03-18T12:27:27.114Z,4.07
2019-03-18T12:29:55.258Z,4.33
2019-03-18T12:32:23.717Z,3.60
2019-03-18T12:34:52.350Z,3.33
2019-03-18T12:37:21.526Z,3.67
2019-03-18T12:39:50.005Z,5.70
2019-03-18T12:42:18.200Z,4.83
2019-03-18T12:44:46.544Z,10.60
2019-03-18T12:47:14.699Z,9.37
2019-03-18T12:49:43.537Z,7.93
2019-03-18T12:52:11.798Z,8.53
2019-03-18T12:54:40.046Z,5.77
2019-03-18T12:57:09.565Z,18.47
2019-03-18T12:59:39.851Z,4.80
2019-03-18T13:02:07.918Z,4.40
2019-03-18T13:04:39.352Z,4.43
2019-03-18T13:07:07.910Z,4.60
2019-03-18T13:09:36.201Z,4.53
2019-03-18T13:12:04.410Z,4.30
2019-03-18T13:14:32.983Z,4.17
2019-03-18T13:17:02.164Z,3.30
2019-03-18T13:19:30.427Z,3.53
2019-03-18T13:21:59.251Z,12.40
2019-03-18T13:24:27.538Z,4.67
2019-03-18T13:26:58.622Z,5.43
2019-03-18T13:29:25.938Z,3.53
2019-03-18T13:31:54.077Z,2.67
2019-03-18T13:34:22.378Z,2.70
2019-03-18T13:36:50.644Z,2.50
2019-03-18T13:39:18.903Z,2.90
2019-03-18T13:41:47.117Z,3.47
2019-03-18T13:44:15.256Z,7.33
2019-03-18T13:46:44.127Z,5.47
2019-03-18T13:49:15.750Z,5.73
2019-03-18T13:51:42.547Z,9.40
2019-03-18T13:54:11.024Z,3.60
2019-03-18T13:56:39.902Z,3.17
2019-03-18T13:59:08.502Z,2.90
2019-03-18T14:01:36.847Z,3.00
2019-03-18T14:04:05.179Z,3.03
2019-03-18T14:06:33.960Z,3.13
2019-03-18T14:09:02.403Z,3.57
2019-03-18T14:11:30.844Z,3.80
2019-03-18T14:13:59.030Z,2.47
2019-03-18T14:16:27.209Z,2.30
2019-03-18T14:18:55.517Z,2.83
2019-03-18T14:21:32.802Z,2.83
2019-03-18T14:23:56.197Z,4.00
2019-03-18T14:26:24.735Z,4.07
2019-03-18T14:28:52.883Z,2.93
2019-03-18T14:31:21.025Z,3.23
2019-03-18T14:33:49.372Z,3.40
2019-03-18T14:36:19.981Z,3.43
2019-03-18T14:38:50.957Z,3.53
2019-03-18T14:41:19.188Z,4.00
2019-03-18T14:43:49.928Z,3.60
2019-03-18T14:46:18.123Z,3.60
2019-03-18T14:48:51.053Z,3.20
2019-03-18T14:51:22.019Z,2.70
2019-03-18T14:53:52.981Z,10.17
2019-03-18T14:56:24.047Z,3.40
2019-03-18T14:58:52.823Z,2.80
2019-03-18T15:01:23.627Z,11.13
2019-03-18T15:03:56.580Z,3.77
2019-03-18T15:06:24.805Z,3.03
2019-03-18T15:08:55.962Z,10.30
2019-03-18T15:11:24.446Z,7.23
2019-03-18T15:13:52.813Z,3.07
2019-03-18T15:16:21.285Z,8.00
2019-03-18T15:18:52.850Z,8.33
2019-03-18T15:21:21.331Z,4.57
2019-03-18T15:23:49.486Z,4.40
2019-03-18T15:26:21.093Z,5.47
2019-03-18T15:28:49.387Z,8.10
2019-03-18T15:31:18.200Z,4.40
2019-03-18T15:33:46.547Z,6.10
2019-03-18T15:36:17.198Z,6.87
2019-03-18T15:38:45.821Z,4.90
2019-03-18T15:41:14.684Z,4.47
2019-03-18T15:43:42.968Z,4.37
2019-03-18T15:46:13.929Z,4.60
2019-03-18T15:48:42.395Z,4.77
2019-03-18T15:51:10.855Z,7.73
2019-03-18T15:53:39.317Z,11.10
2019-03-18T15:56:07.896Z,5.37
2019-03-18T15:58:36.362Z,4.57
2019-03-18T16:01:04.788Z,5.70
2019-03-18T16:03:33.263Z,5.97
2019-03-18T16:06:01.760Z,6.60
2019-03-18T16:08:29.988Z,6.10
2019-03-18T16:10:58.178Z,8.57
2019-03-18T16:13:26.773Z,5.73
2019-03-18T16:15:54.915Z,7.10
2019-03-18T16:18:23.736Z,7.50
2019-03-18T16:20:52.103Z,8.13
2019-03-18T16:23:20.377Z,7.60
2019-03-18T16:25:48.652Z,14.97
2019-03-18T16:28:17.867Z,19.03
2019-03-18T16:30:46.145Z,8.03
2019-03-18T16:33:14.363Z,10.03
2019-03-18T16:35:42.503Z,5.93
2019-03-18T16:38:10.695Z,10.50
2019-03-18T16:40:39.021Z,11.10
2019-03-18T16:43:07.603Z,11.47
2019-03-18T16:45:35.997Z,9.80
2019-03-18T16:48:04.247Z,12.00
2019-03-18T16:50:32.491Z,11.50
2019-03-18T16:53:00.797Z,23.63
2019-03-18T16:55:29.050Z,19.42
2019-03-18T16:57:57.258Z,14.57
2019-03-18T17:00:26.293Z,16.53
2019-03-18T17:02:54.507Z,19.43
2019-03-18T17:05:22.825Z,37.60
2019-03-18T17:07:53.948Z,16.47
2019-03-18T17:10:21.029Z,13.63
2019-03-18T17:12:49.892Z,28.53
2019-03-18T17:15:18.760Z,28.17
2019-03-18T17:17:47.241Z,15.00
2019-03-18T17:20:16.171Z,35.40
2019-03-18T17:22:49.389Z,20.23
2019-03-18T17:25:18.069Z,39.80
2019-03-18T17:27:46.263Z,42.90
2019-03-18T17:30:16.500Z,69.33
2019-03-18T17:32:44.818Z,152.73
2019-03-18T17:35:12.962Z,67.13
2019-03-18T17:37:41.456Z,66.40
2019-03-18T17:40:11.052Z,54.47
2019-03-18T17:42:39.844Z,38.83
2019-03-18T17:45:09.230Z,39.03
2019-03-18T17:47:37.469Z,24.83
2019-03-18T17:50:07.397Z,30.67
2019-03-18T17:52:36.014Z,28.97
2019-03-18T17:55:04.569Z,30.60
2019-03-18T17:57:32.987Z,33.43
2019-03-18T18:00:01.233Z,36.63
2019-03-18T18:02:29.448Z,30.87
2019-03-18T18:05:02.937Z,25.20
2019-03-18T18:07:27.799Z,35.60
2019-03-18T18:09:55.989Z,40.93
2019-03-18T18:12:24.156Z,39.20
2019-03-18T18:14:52.625Z,43.63
2019-03-18T18:17:20.852Z,48.50
2019-03-18T18:19:49.071Z,57.53
2019-03-18T18:22:17.355Z,54.60
2019-03-18T18:24:45.539Z,48.63
2019-03-18T18:27:13.696Z,39.47
2019-03-18T18:29:42.190Z,41.50
2019-03-18T18:32:10.944Z,40.47
2019-03-18T18:34:39.240Z,41.40
2019-03-18T18:37:07.451Z,56.90
2019-03-18T18:39:35.895Z,47.27
2019-03-18T18:42:04.307Z,44.70
2019-03-18T18:44:32.643Z,31.07
2019-03-18T18:47:01.143Z,42.47
2019-03-18T18:49:29.687Z,38.30
2019-03-18T18:51:58.093Z,48.87
2019-03-18T18:54:26.660Z,48.73
2019-03-18T18:56:54.984Z,46.53
2019-03-18T18:59:23.315Z,49.83
2019-03-18T19:01:51.505Z,51.63
2019-03-18T19:04:19.760Z,57.80
2019-03-18T19:06:47.992Z,61.63
2019-03-18T19:09:16.303Z,59.40
2019-03-18T19:11:44.509Z,54.80
2019-03-18T19:14:14.123Z,53.63
2019-03-18T19:16:42.902Z,46.17
2019-03-18T19:19:11.379Z,44.87
2019-03-18T19:21:39.638Z,48.27
2019-03-18T19:24:08.700Z,41.53
2019-03-18T19:26:37.052Z,47.90
2019-03-18T19:29:05.283Z,45.07
2019-03-18T19:31:33.780Z,45.13
2019-03-18T19:34:03.043Z,47.07
2019-03-18T19:36:31.264Z,49.47
2019-03-18T19:39:00.655Z,67.73
2019-03-18T19:41:28.956Z,76.03
2019-03-18T19:43:57.126Z,110.27
2019-03-18T19:46:25.333Z,131.93
2019-03-18T19:48:53.797Z,140.03
2019-03-18T19:51:21.945Z,112.17
2019-03-18T19:53:50.193Z,143.87
2019-03-18T19:56:19.402Z,118.33
2019-03-18T19:58:48.125Z,138.07
2019-03-18T20:01:16.686Z,130.23
2019-03-18T20:03:44.887Z,143.30
2019-03-18T20:06:13.168Z,155.50
2019-03-18T20:08:42.619Z,151.10
2019-03-18T20:11:10.743Z,145.83
2019-03-18T20:13:39.126Z,142.73
2019-03-18T20:16:07.674Z,139.13
2019-03-18T20:18:36.121Z,125.53
2019-03-18T20:21:04.376Z,100.47
2019-03-18T20:23:33.294Z,79.37
2019-03-18T20:26:01.774Z,94.53
2019-03-18T20:28:30.214Z,98.57
2019-03-18T20:30:59.152Z,149.67
2019-03-18T20:33:27.419Z,172.67
2019-03-18T20:35:56.706Z,190.80
2019-03-18T20:38:25.124Z,208.60
2019-03-18T20:40:53.709Z,251.50
2019-03-18T20:43:22.469Z,210.37
2019-03-18T20:45:50.821Z,161.30
2019-03-18T20:48:19.098Z,162.77
2019-03-18T20:50:47.590Z,159.23
2019-03-18T20:53:15.889Z,157.80
2019-03-18T20:55:44.758Z,146.67
2019-03-18T20:58:13.240Z,154.20
2019-03-18T21:00:41.793Z,173.03
2019-03-18T21:03:09.998Z,245.83
2019-03-18T21:05:38.164Z,175.60
2019-03-18T21:08:06.529Z,170.97
2019-03-18T21:10:35.325Z,148.23
2019-03-18T21:13:03.925Z,149.50
2019-03-18T21:15:32.364Z,141.07
2019-03-18T21:18:00.675Z,144.97
2019-03-18T21:20:29.284Z,138.73
2019-03-18T21:22:57.920Z,141.43
2019-03-18T21:25:26.144Z,138.20
2019-03-18T21:27:54.333Z,139.83
2019-03-18T21:30:22.836Z,130.63
2019-03-18T21:32:51.083Z,115.83
2019-03-18T21:35:20.019Z,112.20
2019-03-18T21:37:49.740Z,121.50
2019-03-18T21:40:18.633Z,124.57
2019-03-18T21:42:47.107Z,137.23
2019-03-18T21:45:16.982Z,136.80
2019-03-18T21:47:47.768Z,108.97
2019-03-18T21:50:33.995Z,120.70
2019-03-18T21:53:02.578Z,155.97
2019-03-18T21:55:31.123Z,131.57
2019-03-18T21:57:59.499Z,128.40
2019-03-18T22:00:28.073Z,133.43
2019-03-18T22:02:56.239Z,109.80
2019-03-18T22:05:24.460Z,86.03
2019-03-18T22:07:52.995Z,73.97
2019-03-18T22:10:21.212Z,109.70
2019-03-18T22:12:49.759Z,76.97
2019-03-18T22:15:17.990Z,143.17
2019-03-18T22:17:46.293Z,119.70
2019-03-18T22:20:15.617Z,103.70
2019-03-18T22:22:44.090Z,146.23
2019-03-18T22:25:12.766Z,106.80
2019-03-18T22:27:41.458Z,101.13
2019-03-18T22:30:11.148Z,98.37
2019-03-18T22:32:39.410Z,100.13
2019-03-18T22:35:08.033Z,119.37
2019-03-18T22:37:36.808Z,98.73
2019-03-18T22:40:13.024Z,86.93
2019-03-18T22:42:41.470Z,72.30
2019-03-18T22:45:10.922Z,89.90
2019-03-18T22:47:39.228Z,62.63
2019-03-18T22:50:09.971Z,46.27
2019-03-18T22:52:38.275Z,47.80
2019-03-18T22:55:10.178Z,64.10
2019-03-18T22:57:38.797Z,97.67
2019-03-18T23:00:12.906Z,92.93
2019-03-18T23:02:43.831Z,82.63
2019-03-18T23:05:13.801Z,109.43
2019-03-18T23:07:42.187Z,123.63
2019-03-18T23:10:10.443Z,92.37
2019-03-18T23:12:38.609Z,69.67
2019-03-18T23:15:07.707Z,66.87
2019-03-18T23:17:36.246Z,57.40
2019-03-18T23:20:07.270Z,55.30
2019-03-18T23:22:37.900Z,46.63
2019-03-18T23:25:08.677Z,66.40
2019-03-18T23:27:39.556Z,66.03
2019-03-18T23:30:09.363Z,54.57
2019-03-18T23:32:40.044Z,47.43
2019-03-18T23:35:10.736Z,46.27
2019-03-18T23:37:43.570Z,42.40
2019-03-18T23:40:14.466Z,48.73
2019-03-18T23:42:45.985Z,35.13
2019-03-18T23:45:14.387Z,38.27
2019-03-18T23:47:42.865Z,36.93
2019-03-18T23:50:14.117Z,36.20
2019-03-18T23:52:49.681Z,46.47
2019-03-18T23:55:19.859Z,38.30
2019-03-18T23:57:50.187Z,36.60
